createdAt,value
2023-05-10T00:00:31.530Z,44.35
2023-05-10T00:01:31.538Z,45.64
2023-05-10T00:02:30.618Z,46.20
2023-05-10T00:03:31.686Z,47.05
2023-05-10T00:04:30.617Z,42.34
2023-05-10T00:05:31.613Z,46.49
2023-05-10T00:06:30.635Z,45.30
2023-05-10T00:07:30.648Z,45.19
2023-05-10T00:08:31.686Z,45.52
2023-05-10T00:09:31.802Z,44.28
2023-05-10T00:10:31.791Z,46.28
2023-05-10T00:11:31.785Z,45.01
2023-05-10T00:12:31.835Z,44.35
2023-05-10T00:13:31.898Z,42.78
2023-05-10T00:14:31.778Z,48.54
2023-05-10T00:15:30.876Z,46.55
2023-05-10T00:16:30.957Z,47.92
2023-05-10T00:17:30.921Z,46.12
2023-05-10T00:18:32.071Z,48.03
2023-05-10T00:19:31.991Z,42.68
2023-05-10T00:20:31.949Z,49.55
2023-05-10T00:21:31.916Z,43.52
2023-05-10T00:22:31.993Z,42.12
2023-05-10T00:23:31.983Z,43.68
2023-05-10T00:24:30.969Z,46.28
2023-05-10T00:25:32.046Z,46.60
2023-05-10T00:26:32.005Z,46.52
2023-05-10T00:27:32.065Z,46.92
2023-05-10T00:28:31.092Z,45.40
2023-05-10T00:29:31.087Z,47.59
2023-05-10T00:30:32.126Z,43.18
2023-05-10T00:31:32.104Z,42.84
2023-05-10T00:32:31.122Z,48.12
2023-05-10T00:33:31.125Z,45.22
2023-05-10T00:34:31.140Z,44.67
2023-05-10T00:35:32.081Z,43.77
2023-05-10T00:36:32.254Z,44.54
2023-05-10T00:37:32.138Z,46.25
2023-05-10T00:38:31.254Z,45.58
2023-05-10T00:39:31.287Z,44.72
2023-05-10T00:40:32.252Z,46.29
2023-05-10T00:41:32.218Z,47.09
2023-05-10T00:42:31.216Z,45.02
2023-05-10T00:43:31.237Z,43.30
2023-05-10T00:44:32.264Z,45.70
2023-05-10T00:45:32.310Z,46.77
2023-05-10T00:46:31.351Z,46.22
2023-05-10T00:47:32.382Z,45.95
2023-05-10T00:48:32.410Z,46.51
2023-05-10T00:49:32.372Z,42.50
2023-05-10T00:50:32.397Z,41.53
2023-05-10T00:51:32.428Z,47.47
2023-05-10T00:52:31.469Z,45.01
2023-05-10T00:53:31.450Z,44.97
2023-05-10T00:54:32.513Z,47.72
2023-05-10T00:55:32.507Z,46.01
2023-05-10T00:56:32.528Z,42.85
2023-05-10T00:57:31.518Z,44.12
2023-05-10T00:58:32.543Z,44.75
2023-05-10T00:59:32.581Z,46.54
2023-05-10T01:00:32.581Z,48.79
2023-05-10T01:01:32.652Z,47.89
2023-05-10T01:02:31.693Z,43.83
2023-05-10T01:03:32.743Z,45.76
2023-05-10T01:04:32.704Z,47.87
2023-05-10T01:05:32.695Z,44.15
2023-05-10T01:06:32.728Z,42.95
2023-05-10T01:07:31.795Z,44.61
2023-05-10T01:08:31.960Z,46.82
2023-05-10T01:09:31.828Z,45.82
2023-05-10T01:10:31.864Z,48.52
2023-05-10T01:11:32.917Z,45.13
2023-05-10T01:12:33.287Z,44.77
2023-05-10T01:13:31.932Z,45.34
2023-05-10T01:14:31.958Z,46.26
2023-05-10T01:15:32.029Z,48.29
2023-05-10T01:16:33.230Z,46.66
2023-05-10T01:17:31.990Z,47.00
2023-05-10T01:18:33.001Z,45.59
2023-05-10T01:19:33.113Z,42.32
2023-05-10T01:20:33.202Z,46.09
2023-05-10T01:21:33.214Z,44.73
2023-05-10T01:22:33.137Z,41.00
2023-05-10T01:23:32.106Z,45.28
2023-05-10T01:24:33.152Z,47.21
2023-05-10T01:25:33.150Z,44.81
2023-05-10T01:26:32.174Z,46.63
2023-05-10T01:27:32.208Z,40.08
2023-05-10T01:28:32.217Z,43.19
2023-05-10T01:29:33.258Z,41.57
2023-05-10T01:30:32.296Z,46.56
2023-05-10T01:31:33.352Z,47.72
2023-05-10T01:32:33.409Z,46.55
2023-05-10T01:33:32.474Z,46.67
2023-05-10T01:34:32.398Z,43.01
2023-05-10T01:35:33.427Z,45.13
2023-05-10T01:36:33.459Z,44.54
2023-05-10T01:37:32.480Z,45.19
2023-05-10T01:38:33.694Z,49.74
2023-05-10T01:39:33.769Z,43.79
2023-05-10T01:40:32.753Z,46.57
2023-05-10T01:41:32.689Z,43.48
2023-05-10T01:42:33.673Z,42.86
2023-05-10T01:43:32.635Z,47.15
2023-05-10T01:44:32.663Z,42.34
2023-05-10T01:45:33.689Z,45.77
2023-05-10T01:46:33.891Z,43.56
2023-05-10T01:47:33.853Z,40.27
2023-05-10T01:48:33.910Z,45.93
2023-05-10T01:49:33.922Z,46.24
2023-05-10T01:50:33.883Z,42.52
2023-05-10T01:51:33.953Z,44.35
2023-05-10T01:52:32.982Z,43.08
2023-05-10T01:53:32.939Z,44.32
2023-05-10T01:54:33.040Z,44.86
2023-05-10T01:55:32.959Z,44.89
2023-05-10T01:56:34.012Z,41.17
2023-05-10T01:57:34.007Z,42.99
2023-05-10T01:58:34.036Z,44.79
2023-05-10T01:59:33.236Z,45.96
2023-05-10T02:00:34.274Z,42.86
2023-05-10T02:01:33.173Z,45.78
2023-05-10T02:02:33.214Z,44.18
2023-05-10T02:03:33.296Z,42.29
2023-05-10T02:04:34.202Z,44.38
2023-05-10T02:05:34.212Z,46.37
2023-05-10T02:06:34.220Z,50.78
2023-05-10T02:07:34.343Z,45.90
2023-05-10T02:08:34.357Z,46.22
2023-05-10T02:09:34.430Z,44.52
2023-05-10T02:10:34.412Z,41.83
2023-05-10T02:11:34.447Z,42.95
2023-05-10T02:12:34.485Z,41.70
2023-05-10T02:13:33.588Z,45.94
2023-05-10T02:14:34.645Z,46.17
2023-05-10T02:15:33.548Z,46.49
2023-05-10T02:16:34.557Z,47.16
2023-05-10T02:17:33.590Z,45.73
2023-05-10T02:18:33.523Z,43.62
2023-05-10T02:19:34.552Z,42.79
2023-05-10T02:20:34.614Z,46.30
2023-05-10T02:21:33.625Z,42.09
2023-05-10T02:22:33.627Z,43.13
2023-05-10T02:23:33.713Z,43.10
2023-05-10T02:24:34.714Z,44.41
2023-05-10T02:25:34.765Z,42.95
2023-05-10T02:26:34.754Z,46.87
2023-05-10T02:27:34.776Z,46.39
2023-05-10T02:28:34.934Z,42.57
2023-05-10T02:29:34.007Z,42.90
2023-05-10T02:30:33.974Z,45.02
2023-05-10T02:31:35.017Z,42.86
2023-05-10T02:32:33.971Z,45.70
2023-05-10T02:33:34.947Z,43.65
2023-05-10T02:34:34.968Z,41.31
2023-05-10T02:35:35.023Z,46.00
2023-05-10T02:36:35.035Z,46.48
2023-05-10T02:37:35.050Z,41.64
2023-05-10T02:38:35.242Z,46.91
2023-05-10T02:39:35.450Z,41.69
2023-05-10T02:40:35.253Z,47.97
2023-05-10T02:41:34.248Z,44.98
2023-05-10T02:42:34.401Z,45.34
2023-05-10T02:43:34.337Z,41.82
2023-05-10T02:44:35.366Z,45.23
2023-05-10T02:45:35.333Z,43.79
2023-05-10T02:46:35.499Z,43.43
2023-05-10T02:47:34.467Z,42.36
2023-05-10T02:48:35.494Z,44.18
2023-05-10T02:49:35.651Z,41.30
2023-05-10T02:50:35.544Z,42.16
2023-05-10T02:51:35.564Z,44.24
2023-05-10T02:52:35.723Z,44.10
2023-05-10T02:53:35.644Z,47.14
2023-05-10T02:54:34.640Z,45.06
2023-05-10T02:55:35.655Z,43.31
2023-05-10T02:56:34.638Z,45.92
2023-05-10T02:57:34.873Z,43.11
2023-05-10T02:58:34.692Z,41.25
2023-05-10T02:59:35.791Z,40.22
2023-05-10T03:00:34.792Z,41.88
2023-05-10T03:01:35.824Z,44.44
2023-05-10T03:02:35.825Z,42.44
2023-05-10T03:03:35.815Z,44.32
2023-05-10T03:04:35.904Z,43.65
2023-05-10T03:05:35.941Z,42.43
2023-05-10T03:06:35.948Z,42.12
2023-05-10T03:07:35.966Z,42.62
2023-05-10T03:08:35.930Z,40.28
2023-05-10T03:09:35.991Z,41.52
2023-05-10T03:10:36.073Z,42.06
2023-05-10T03:11:36.085Z,44.23
2023-05-10T03:12:35.106Z,44.29
2023-05-10T03:13:36.126Z,44.65
2023-05-10T03:14:35.116Z,43.16
2023-05-10T03:15:35.091Z,44.59
2023-05-10T03:16:36.146Z,41.65
2023-05-10T03:17:35.218Z,44.85
2023-05-10T03:18:36.489Z,46.49
2023-05-10T03:19:36.179Z,41.08
2023-05-10T03:20:35.438Z,43.36
2023-05-10T03:21:36.343Z,44.68
2023-05-10T03:22:35.299Z,44.04
2023-05-10T03:23:35.308Z,46.36
2023-05-10T03:24:36.349Z,43.71
2023-05-10T03:25:35.385Z,42.40
2023-05-10T03:26:36.458Z,43.92
2023-05-10T03:27:36.418Z,45.19
2023-05-10T03:28:36.454Z,44.63
2023-05-10T03:29:36.485Z,40.47
2023-05-10T03:30:36.542Z,44.95
2023-05-10T03:31:36.590Z,38.51
2023-05-10T03:32:36.620Z,44.60
2023-05-10T03:33:36.606Z,40.28
2023-05-10T03:34:36.639Z,40.80
2023-05-10T03:35:35.668Z,40.98
2023-05-10T03:36:36.735Z,41.36
2023-05-10T03:37:35.752Z,41.97
2023-05-10T03:38:37.018Z,45.61
2023-05-10T03:39:36.868Z,42.80
2023-05-10T03:40:37.089Z,43.07
2023-05-10T03:41:37.036Z,39.65
2023-05-10T03:42:37.095Z,42.79
2023-05-10T03:43:37.024Z,39.36
2023-05-10T03:44:36.053Z,42.23
2023-05-10T03:45:36.118Z,43.51
2023-05-10T03:46:36.232Z,43.87
2023-05-10T03:47:37.306Z,40.48
2023-05-10T03:48:37.234Z,40.51
2023-05-10T03:49:36.231Z,40.51
2023-05-10T03:50:37.403Z,40.64
2023-05-10T03:51:36.194Z,41.82
2023-05-10T03:52:37.239Z,40.79
2023-05-10T03:53:36.311Z,43.88
2023-05-10T03:54:36.377Z,43.01
2023-05-10T03:55:37.552Z,44.21
2023-05-10T03:56:37.795Z,42.91
2023-05-10T03:57:37.486Z,43.17
2023-05-10T03:58:37.444Z,45.12
2023-05-10T03:59:37.459Z,43.02
2023-05-10T04:00:37.550Z,42.95
2023-05-10T04:01:36.608Z,42.31
2023-05-10T04:02:38.438Z,44.12
2023-05-10T04:03:37.964Z,42.08
2023-05-10T04:04:37.687Z,41.77
2023-05-10T04:05:36.798Z,38.90
2023-05-10T04:06:37.791Z,43.75
2023-05-10T04:07:37.756Z,43.13
2023-05-10T04:08:37.817Z,43.97
2023-05-10T04:09:37.837Z,41.22
2023-05-10T04:10:37.909Z,43.52
2023-05-10T04:11:37.915Z,42.81
2023-05-10T04:12:38.125Z,43.70
2023-05-10T04:13:36.970Z,44.04
2023-05-10T04:14:37.002Z,45.14
2023-05-10T04:15:38.083Z,42.09
2023-05-10T04:16:38.156Z,43.37
2023-05-10T04:17:38.174Z,42.37
2023-05-10T04:18:38.152Z,40.82
2023-05-10T04:19:37.175Z,41.30
2023-05-10T04:20:38.291Z,41.68
2023-05-10T04:21:37.285Z,38.12
2023-05-10T04:22:37.317Z,42.08
2023-05-10T04:23:37.381Z,43.34
2023-05-10T04:24:37.401Z,44.24
2023-05-10T04:25:38.750Z,41.73
2023-05-10T04:26:38.586Z,43.38
2023-05-10T04:27:38.656Z,38.57
2023-05-10T04:28:37.682Z,44.19
2023-05-10T04:29:38.758Z,41.57
2023-05-10T04:30:37.644Z,44.33
2023-05-10T04:31:37.677Z,41.10
2023-05-10T04:32:38.936Z,42.39
2023-05-10T04:33:38.740Z,40.32
2023-05-10T04:34:38.794Z,39.09
2023-05-10T04:35:38.836Z,42.08
2023-05-10T04:36:38.902Z,41.48
2023-05-10T04:37:38.910Z,44.52
2023-05-10T04:38:38.944Z,41.05
2023-05-10T04:39:40.197Z,40.48
2023-05-10T04:40:39.116Z,45.89
2023-05-10T04:41:39.284Z,43.20
2023-05-10T04:42:38.211Z,42.41
2023-05-10T04:43:39.076Z,41.88
2023-05-10T04:44:38.965Z,45.45
2023-05-10T04:45:37.950Z,40.92
2023-05-10T04:46:37.976Z,40.42
2023-05-10T04:47:38.964Z,42.28
2023-05-10T04:48:39.185Z,41.50
2023-05-10T04:49:39.119Z,41.01
2023-05-10T04:50:39.135Z,42.15
2023-05-10T04:51:38.065Z,42.34
2023-05-10T04:52:38.069Z,39.69
2023-05-10T04:53:38.883Z,44.53
2023-05-10T04:54:38.871Z,41.78
2023-05-10T04:55:38.869Z,41.18
2023-05-10T04:56:38.878Z,38.97
2023-05-10T04:57:38.848Z,42.53
2023-05-10T04:58:38.852Z,43.91
2023-05-10T04:59:38.907Z,42.27
2023-05-10T05:00:38.829Z,42.84
2023-05-10T05:01:38.874Z,41.28
2023-05-10T05:02:38.880Z,43.61
2023-05-10T05:03:39.756Z,41.50
2023-05-10T05:04:38.836Z,41.65
2023-05-10T05:05:38.941Z,37.11
2023-05-10T05:06:38.982Z,44.81
2023-05-10T05:07:38.990Z,41.62
2023-05-10T05:08:39.058Z,40.52
2023-05-10T05:09:39.057Z,39.23
2023-05-10T05:10:38.104Z,39.42
2023-05-10T05:11:38.197Z,42.57
2023-05-10T05:12:39.195Z,41.88
2023-05-10T05:13:38.236Z,41.28
2023-05-10T05:14:38.285Z,41.51
2023-05-10T05:15:39.334Z,41.64
2023-05-10T05:16:38.408Z,40.53
2023-05-10T05:17:38.524Z,42.25
2023-05-10T05:18:38.476Z,43.50
2023-05-10T05:19:39.518Z,42.79
2023-05-10T05:20:39.550Z,41.77
2023-05-10T05:21:38.651Z,41.70
2023-05-10T05:22:38.744Z,40.75
2023-05-10T05:23:39.750Z,42.82
2023-05-10T05:24:39.855Z,42.21
2023-05-10T05:25:39.877Z,32.55
2023-05-10T05:26:38.954Z,36.71
2023-05-10T05:27:39.970Z,36.93
2023-05-10T05:28:40.003Z,34.75
2023-05-10T05:29:39.067Z,39.62
2023-05-10T05:30:40.115Z,36.75
2023-05-10T05:31:39.199Z,31.66
2023-05-10T05:32:40.237Z,34.01
2023-05-10T05:33:40.248Z,40.32
2023-05-10T05:34:40.350Z,35.99
2023-05-10T05:35:40.359Z,35.10
2023-05-10T05:36:40.660Z,46.38
2023-05-10T05:37:40.402Z,53.75
2023-05-10T05:38:40.420Z,61.80
2023-05-10T05:39:46.548Z,60.43
2023-05-10T05:40:39.443Z,61.12
2023-05-10T05:41:39.487Z,61.64
2023-05-10T05:42:40.462Z,62.67
2023-05-10T05:43:40.416Z,64.12
2023-05-10T05:44:39.428Z,73.98
2023-05-10T05:45:40.434Z,67.71
2023-05-10T05:46:40.413Z,65.10
2023-05-10T05:47:39.420Z,57.46
2023-05-10T05:48:40.403Z,45.70
2023-05-10T05:49:39.428Z,41.11
2023-05-10T05:50:40.382Z,37.61
2023-05-10T05:51:40.373Z,45.85
2023-05-10T05:52:39.397Z,40.66
2023-05-10T05:53:40.355Z,54.97
2023-05-10T05:54:39.389Z,48.36
2023-05-10T05:55:40.449Z,52.46
2023-05-10T05:56:39.354Z,47.22
2023-05-10T05:57:39.359Z,49.22
2023-05-10T05:58:39.379Z,33.50
2023-05-10T05:59:40.417Z,28.83
2023-05-10T06:00:40.314Z,34.00
2023-05-10T06:01:40.776Z,36.65
2023-05-10T06:02:39.432Z,39.97
2023-05-10T06:03:39.584Z,35.59
2023-05-10T06:04:39.315Z,32.68
2023-05-10T06:05:40.280Z,29.19
2023-05-10T06:06:39.285Z,26.32
2023-05-10T06:07:39.297Z,24.91
2023-05-10T06:08:40.253Z,26.14
2023-05-10T06:09:39.324Z,26.98
2023-05-10T06:10:39.317Z,26.10
2023-05-10T06:11:39.684Z,25.64
2023-05-10T06:12:40.239Z,26.42
2023-05-10T06:13:40.249Z,27.35
2023-05-10T06:14:40.214Z,28.64
2023-05-10T06:15:40.239Z,27.53
2023-05-10T06:16:40.282Z,28.09
2023-05-10T06:17:40.240Z,27.03
2023-05-10T06:18:40.256Z,28.21
2023-05-10T06:19:40.310Z,32.41
2023-05-10T06:20:40.332Z,27.24
2023-05-10T06:21:39.409Z,26.61
2023-05-10T06:22:39.402Z,26.40
2023-05-10T06:23:39.441Z,31.91
2023-05-10T06:24:40.486Z,30.14
2023-05-10T06:25:40.535Z,31.20
2023-05-10T06:26:40.577Z,31.76
2023-05-10T06:27:40.609Z,31.18
2023-05-10T06:28:40.661Z,32.87
2023-05-10T06:29:40.700Z,35.41
2023-05-10T06:30:40.752Z,37.31
2023-05-10T06:31:40.815Z,38.24
2023-05-10T06:32:39.842Z,38.99
2023-05-10T06:33:40.832Z,36.74
2023-05-10T06:34:40.875Z,34.43
2023-05-10T06:35:39.958Z,40.56
2023-05-10T06:36:39.965Z,38.25
2023-05-10T06:37:41.050Z,37.77
2023-05-10T06:38:41.073Z,36.09
2023-05-10T06:39:41.077Z,34.88
2023-05-10T06:40:40.114Z,38.17
2023-05-10T06:41:41.192Z,35.65
2023-05-10T06:42:41.212Z,41.31
2023-05-10T06:43:41.300Z,38.93
2023-05-10T06:44:40.300Z,37.18
2023-05-10T06:45:41.356Z,36.62
2023-05-10T06:46:41.446Z,35.84
2023-05-10T06:47:41.477Z,35.32
2023-05-10T06:48:40.483Z,33.65
2023-05-10T06:49:41.559Z,33.80
2023-05-10T06:50:41.586Z,36.20
2023-05-10T06:51:41.757Z,38.97
2023-05-10T06:52:40.676Z,35.86
2023-05-10T06:53:41.710Z,38.97
2023-05-10T06:54:40.779Z,37.04
2023-05-10T06:55:40.805Z,39.21
2023-05-10T06:56:42.201Z,40.61
2023-05-10T06:57:41.906Z,42.54
2023-05-10T06:58:41.050Z,40.69
2023-05-10T06:59:42.068Z,39.69
2023-05-10T07:00:42.070Z,38.28
2023-05-10T07:01:42.222Z,43.83
2023-05-10T07:02:42.262Z,40.80
2023-05-10T07:03:41.217Z,39.52
2023-05-10T07:04:41.292Z,40.73
2023-05-10T07:05:41.323Z,39.44
2023-05-10T07:06:42.371Z,37.69
2023-05-10T07:07:42.401Z,39.23
2023-05-10T07:08:42.804Z,38.91
2023-05-10T07:09:42.501Z,40.83
2023-05-10T07:10:42.581Z,42.99
2023-05-10T07:11:42.609Z,41.24
2023-05-10T07:12:42.713Z,41.71
2023-05-10T07:13:42.743Z,36.14
2023-05-10T07:14:42.971Z,40.55
2023-05-10T07:15:41.793Z,28.30
2023-05-10T07:16:42.926Z,27.48
2023-05-10T07:17:45.521Z,25.72
2023-05-10T07:18:41.901Z,25.90
2023-05-10T07:19:41.880Z,26.09
2023-05-10T07:20:41.867Z,27.47
2023-05-10T07:21:41.868Z,21.01
2023-05-10T07:22:41.886Z,12.40
2023-05-10T07:23:45.194Z,25.59
2023-05-10T07:24:42.814Z,25.81
2023-05-10T07:25:41.857Z,24.10
2023-05-10T07:26:42.846Z,18.80
2023-05-10T07:27:42.837Z,20.93
2023-05-10T07:28:41.825Z,17.09
2023-05-10T07:29:42.812Z,31.15
2023-05-10T07:30:42.834Z,36.25
2023-05-10T07:31:42.821Z,36.35
2023-05-10T07:32:42.877Z,36.43
2023-05-10T07:33:42.773Z,37.40
2023-05-10T07:34:41.755Z,35.94
2023-05-10T07:35:42.766Z,36.14
2023-05-10T07:36:42.795Z,36.90
2023-05-10T07:37:41.762Z,38.66
2023-05-10T07:38:42.731Z,40.07
2023-05-10T07:39:42.719Z,39.27
2023-05-10T07:40:42.740Z,43.31
2023-05-10T07:41:42.714Z,42.11
2023-05-10T07:42:42.713Z,48.34
2023-05-10T07:43:42.708Z,52.73
2023-05-10T07:44:42.719Z,54.41
2023-05-10T07:45:42.773Z,53.15
2023-05-10T07:46:42.682Z,52.70
2023-05-10T07:47:41.846Z,53.51
2023-05-10T07:48:42.677Z,54.95
2023-05-10T07:49:42.662Z,78.06
2023-05-10T07:50:41.661Z,91.24
2023-05-10T07:51:42.636Z,100.21
2023-05-10T07:52:42.725Z,112.56
2023-05-10T07:53:42.617Z,116.41
2023-05-10T07:54:41.667Z,123.31
2023-05-10T07:55:41.597Z,133.98
2023-05-10T07:56:42.633Z,149.79
2023-05-10T07:57:42.617Z,167.70
2023-05-10T07:58:41.610Z,168.48
2023-05-10T07:59:42.602Z,176.33
2023-05-10T08:00:42.574Z,178.07
2023-05-10T08:01:42.568Z,198.27
2023-05-10T08:02:41.698Z,219.06
2023-05-10T08:03:41.711Z,216.28
2023-05-10T08:04:41.827Z,206.90
2023-05-10T08:05:41.760Z,203.84
2023-05-10T08:06:42.824Z,207.47
2023-05-10T08:07:41.755Z,207.14
2023-05-10T08:08:42.711Z,205.98
2023-05-10T08:09:42.714Z,210.30
2023-05-10T08:10:42.726Z,210.89
2023-05-10T08:11:42.734Z,213.50
2023-05-10T08:12:42.739Z,214.90
2023-05-10T08:13:41.751Z,219.01
2023-05-10T08:14:41.748Z,215.58
2023-05-10T08:15:42.830Z,235.03
2023-05-10T08:16:42.752Z,238.98
2023-05-10T08:17:42.774Z,234.04
2023-05-10T08:18:42.848Z,228.87
2023-05-10T08:19:42.788Z,228.11
2023-05-10T08:20:41.759Z,221.05
2023-05-10T08:21:42.759Z,219.93
2023-05-10T08:22:41.782Z,221.53
2023-05-10T08:23:42.762Z,201.87
2023-05-10T08:24:42.753Z,217.06
2023-05-10T08:25:42.750Z,218.55
2023-05-10T08:26:41.818Z,222.78
2023-05-10T08:27:42.764Z,224.39
2023-05-10T08:28:42.768Z,264.90
2023-05-10T08:29:49.437Z,238.40
2023-05-10T08:30:42.751Z,229.20
2023-05-10T08:31:41.800Z,220.53
2023-05-10T08:32:42.762Z,214.17
2023-05-10T08:33:43.760Z,205.97
2023-05-10T08:34:42.736Z,205.89
2023-05-10T08:35:42.757Z,200.41
2023-05-10T08:36:41.715Z,196.78
2023-05-10T08:37:41.712Z,201.28
2023-05-10T08:38:41.695Z,202.68
2023-05-10T08:39:42.714Z,208.49
2023-05-10T08:40:42.693Z,215.45
2023-05-10T08:41:42.698Z,222.24
2023-05-10T08:42:42.718Z,223.82
2023-05-10T08:43:41.672Z,226.31
2023-05-10T08:44:42.645Z,225.97
2023-05-10T08:45:42.698Z,228.01
2023-05-10T08:46:42.663Z,231.18
2023-05-10T08:47:41.659Z,232.48
2023-05-10T08:48:41.650Z,241.33
2023-05-10T08:49:42.649Z,249.20
2023-05-10T08:50:42.624Z,248.93
2023-05-10T08:51:42.580Z,248.36
2023-05-10T08:52:42.597Z,243.08
2023-05-10T08:53:42.599Z,240.75
2023-05-10T08:54:42.606Z,232.89
2023-05-10T08:55:42.610Z,231.52
2023-05-10T08:56:42.596Z,237.56
2023-05-10T08:57:42.735Z,235.65
2023-05-10T08:58:42.641Z,241.76
2023-05-10T08:59:42.562Z,240.53
2023-05-10T09:00:41.662Z,246.28
2023-05-10T09:01:42.568Z,248.45
2023-05-10T09:02:42.604Z,247.65
2023-05-10T09:03:42.595Z,249.28
2023-05-10T09:04:42.656Z,247.10
2023-05-10T09:05:42.685Z,250.00
2023-05-10T09:06:42.666Z,250.00
2023-05-10T09:07:42.718Z,248.98
2023-05-10T09:08:42.802Z,250.00
2023-05-10T09:09:42.725Z,247.37
2023-05-10T09:10:41.800Z,249.79
2023-05-10T09:11:42.743Z,248.46
2023-05-10T09:12:42.747Z,250.00
2023-05-10T09:13:41.796Z,246.93
2023-05-10T09:14:42.799Z,250.00
2023-05-10T09:15:41.840Z,250.00
2023-05-10T09:16:42.918Z,248.92
2023-05-10T09:17:42.876Z,249.22
2023-05-10T09:18:41.849Z,249.13
2023-05-10T09:19:42.892Z,247.29
2023-05-10T09:20:41.921Z,248.94
2023-05-10T09:21:42.899Z,249.20
2023-05-10T09:22:42.940Z,250.00
2023-05-10T09:23:42.000Z,249.53
2023-05-10T09:24:43.028Z,249.39
2023-05-10T09:25:43.107Z,247.70
2023-05-10T09:26:43.160Z,250.00
2023-05-10T09:27:42.167Z,247.99
2023-05-10T09:28:43.207Z,248.94
2023-05-10T09:29:43.281Z,250.00
2023-05-10T09:30:43.369Z,250.07
2023-05-10T09:31:43.382Z,249.13
2023-05-10T09:32:43.496Z,249.95
2023-05-10T09:33:43.496Z,249.71
2023-05-10T09:34:42.548Z,249.08
2023-05-10T09:35:43.597Z,248.86
2023-05-10T09:36:42.656Z,247.93
2023-05-10T09:37:43.796Z,248.80
2023-05-10T09:38:42.769Z,248.55
2023-05-10T09:39:42.832Z,250.00
2023-05-10T09:40:43.856Z,249.40
2023-05-10T09:41:43.917Z,249.62
2023-05-10T09:42:43.930Z,249.87
2023-05-10T09:43:43.972Z,248.94
2023-05-10T09:44:42.987Z,248.00
2023-05-10T09:45:44.007Z,249.31
2023-05-10T09:46:43.066Z,249.30
2023-05-10T09:47:43.380Z,249.07
2023-05-10T09:48:44.063Z,248.15
2023-05-10T09:49:44.138Z,249.34
2023-05-10T09:50:44.119Z,249.39
2023-05-10T09:51:44.157Z,247.72
2023-05-10T09:52:44.272Z,245.19
2023-05-10T09:53:43.201Z,231.66
2023-05-10T09:54:44.215Z,189.10
2023-05-10T09:55:44.217Z,172.34
2023-05-10T09:56:44.187Z,153.86
2023-05-10T09:57:43.246Z,160.95
2023-05-10T09:58:44.180Z,154.90
2023-05-10T09:59:44.166Z,136.81
2023-05-10T10:00:44.172Z,118.72
2023-05-10T10:01:44.296Z,121.03
2023-05-10T10:02:44.260Z,116.37
2023-05-10T10:03:44.148Z,113.93
2023-05-10T10:04:44.195Z,99.25
2023-05-10T10:05:44.121Z,91.92
2023-05-10T10:06:43.121Z,85.82
2023-05-10T10:07:44.109Z,89.02
2023-05-10T10:08:44.108Z,90.62
2023-05-10T10:09:44.092Z,83.73
2023-05-10T10:10:44.100Z,77.28
2023-05-10T10:11:44.101Z,78.31
2023-05-10T10:12:44.079Z,77.52
2023-05-10T10:13:44.207Z,62.19
2023-05-10T10:14:43.063Z,58.48
2023-05-10T10:15:44.113Z,53.23
2023-05-10T10:16:55.527Z,55.33
2023-05-10T10:17:44.119Z,55.36
2023-05-10T10:18:44.125Z,44.15
2023-05-10T10:19:44.027Z,50.07
2023-05-10T10:20:44.021Z,44.91
2023-05-10T10:21:43.027Z,48.83
2023-05-10T10:22:44.002Z,49.88
2023-05-10T10:23:44.083Z,59.72
2023-05-10T10:24:43.998Z,58.11
2023-05-10T10:25:44.025Z,71.10
2023-05-10T10:26:44.012Z,86.57
2023-05-10T10:27:44.048Z,92.52
2023-05-10T10:28:43.026Z,94.51
2023-05-10T10:29:43.028Z,99.06
2023-05-10T10:30:43.044Z,99.32
2023-05-10T10:31:43.119Z,102.75
2023-05-10T10:32:43.083Z,104.36
2023-05-10T10:33:45.314Z,112.95
2023-05-10T10:34:44.048Z,115.24
2023-05-10T10:35:44.021Z,114.99
2023-05-10T10:36:44.063Z,112.84
2023-05-10T10:37:43.026Z,116.31
2023-05-10T10:38:44.004Z,120.40
2023-05-10T10:39:44.030Z,119.05
2023-05-10T10:40:43.997Z,117.55
2023-05-10T10:41:43.998Z,114.06
2023-05-10T10:42:43.972Z,98.59
2023-05-10T10:43:44.294Z,98.05
2023-05-10T10:44:43.965Z,101.19
2023-05-10T10:45:43.947Z,109.38
2023-05-10T10:46:43.968Z,118.31
2023-05-10T10:47:43.970Z,118.46
2023-05-10T10:48:43.959Z,127.47
2023-05-10T10:49:43.983Z,127.05
2023-05-10T10:50:43.919Z,132.38
2023-05-10T10:51:43.912Z,134.76
2023-05-10T10:52:43.934Z,139.78
2023-05-10T10:53:43.906Z,140.93
2023-05-10T10:54:42.900Z,142.70
2023-05-10T10:55:43.912Z,146.92
2023-05-10T10:56:43.911Z,148.74
2023-05-10T10:57:43.871Z,152.35
2023-05-10T10:58:42.886Z,157.44
2023-05-10T10:59:43.892Z,163.06
2023-05-10T11:00:42.874Z,168.49
2023-05-10T11:01:43.840Z,167.39
2023-05-10T11:02:42.909Z,170.47
2023-05-10T11:03:43.842Z,175.95
2023-05-10T11:04:43.837Z,177.23
2023-05-10T11:05:43.818Z,180.63
2023-05-10T11:06:43.867Z,181.47
2023-05-10T11:07:43.829Z,183.38
2023-05-10T11:08:42.883Z,187.82
2023-05-10T11:09:43.945Z,190.31
2023-05-10T11:10:43.998Z,175.55
2023-05-10T11:11:44.009Z,152.81
2023-05-10T11:12:44.017Z,137.46
2023-05-10T11:13:44.062Z,102.79
2023-05-10T11:14:44.079Z,87.11
2023-05-10T11:15:44.795Z,83.81
2023-05-10T11:16:43.190Z,86.23
2023-05-10T11:17:43.259Z,73.24
2023-05-10T11:18:44.265Z,63.86
2023-05-10T11:19:44.219Z,50.81
2023-05-10T11:20:43.227Z,42.81
2023-05-10T11:21:43.237Z,37.44
2023-05-10T11:22:43.244Z,43.18
2023-05-10T11:23:43.272Z,46.47
2023-05-10T11:24:43.254Z,64.44
2023-05-10T11:25:43.248Z,83.21
2023-05-10T11:26:44.267Z,87.27
2023-05-10T11:27:44.300Z,98.50
2023-05-10T11:28:44.378Z,97.82
2023-05-10T11:29:44.413Z,100.29
2023-05-10T11:30:44.494Z,99.78
2023-05-10T11:31:43.529Z,103.10
2023-05-10T11:32:43.606Z,104.11
2023-05-10T11:33:43.570Z,107.06
2023-05-10T11:34:44.611Z,106.03
2023-05-10T11:35:44.642Z,99.15
2023-05-10T11:36:44.682Z,96.01
2023-05-10T11:37:43.734Z,95.94
2023-05-10T11:38:44.773Z,109.51
2023-05-10T11:39:45.287Z,109.45
2023-05-10T11:40:43.934Z,116.11
2023-05-10T11:41:43.903Z,111.63
2023-05-10T11:42:44.965Z,114.07
2023-05-10T11:43:44.029Z,116.59
2023-05-10T11:44:44.080Z,119.51
2023-05-10T11:45:45.116Z,119.87
2023-05-10T11:46:44.320Z,119.36
2023-05-10T11:47:45.271Z,121.65
2023-05-10T11:48:45.307Z,124.34
2023-05-10T11:49:44.361Z,123.46
2023-05-10T11:50:44.408Z,125.04
2023-05-10T11:51:45.468Z,125.21
2023-05-10T11:52:44.512Z,126.21
2023-05-10T11:53:45.584Z,128.11
2023-05-10T11:54:44.630Z,130.16
2023-05-10T11:55:45.705Z,128.51
2023-05-10T11:56:44.769Z,132.22
2023-05-10T11:57:44.829Z,130.59
2023-05-10T11:58:45.899Z,130.59
2023-05-10T11:59:45.008Z,129.58
2023-05-10T12:00:45.988Z,131.12
2023-05-10T12:01:46.035Z,130.57
2023-05-10T12:02:46.552Z,134.43
2023-05-10T12:03:45.338Z,131.45
2023-05-10T12:04:45.191Z,136.01
2023-05-10T12:05:45.139Z,132.62
2023-05-10T12:06:46.178Z,135.61
2023-05-10T12:07:45.176Z,134.26
2023-05-10T12:08:46.199Z,130.80
2023-05-10T12:09:45.235Z,115.23
2023-05-10T12:10:46.247Z,102.54
2023-05-10T12:11:45.295Z,95.49
2023-05-10T12:12:46.321Z,96.08
2023-05-10T12:13:46.354Z,101.40
2023-05-10T12:14:46.404Z,106.50
2023-05-10T12:15:46.441Z,101.61
2023-05-10T12:16:45.555Z,110.61
2023-05-10T12:17:45.527Z,116.79
2023-05-10T12:18:46.591Z,123.51
2023-05-10T12:19:45.473Z,116.02
2023-05-10T12:20:46.455Z,125.28
2023-05-10T12:21:45.515Z,119.18
2023-05-10T12:22:46.449Z,126.41
2023-05-10T12:23:45.506Z,135.61
2023-05-10T12:24:45.563Z,135.11
2023-05-10T12:25:46.609Z,135.95
2023-05-10T12:26:51.897Z,140.81
2023-05-10T12:27:46.669Z,141.04
2023-05-10T12:28:46.645Z,141.74
2023-05-10T12:29:45.722Z,143.34
2023-05-10T12:30:46.625Z,147.25
2023-05-10T12:31:45.636Z,152.98
2023-05-10T12:32:45.656Z,155.84
2023-05-10T12:33:46.610Z,159.28
2023-05-10T12:34:45.597Z,161.16
2023-05-10T12:35:46.631Z,163.06
2023-05-10T12:36:46.591Z,165.70
2023-05-10T12:37:45.574Z,169.10
2023-05-10T12:38:45.577Z,168.37
2023-05-10T12:39:45.587Z,170.15
2023-05-10T12:40:45.572Z,170.09
2023-05-10T12:41:45.547Z,168.94
2023-05-10T12:42:46.554Z,168.20
2023-05-10T12:43:45.532Z,169.12
2023-05-10T12:44:46.531Z,171.82